Time;durP1;ratioP1;P1;durP2;ratioP2;P2;SDS_P1;SDS_P2;PMS_P1;PMS_P2;Temp;Humidity;BMP_temperature;BMP_pressure;BME280_temperature;BME280_humidity;BME280_pressure;Samples;Min_cycle;Max_cycle;Signal;HPM_P1;HPM_P2
2022/08/18 00:01:21;;;;;;;18.02;6.47;;;;;21.00;99003.00;;;;4993878;28;88734;-60
2022/08/18 00:03:49;;;;;;;17.55;6.95;;;20.80;99.90;21.00;99005.00;;;;4975669;28;88523;-60
2022/08/18 00:06:17;;;;;;;15.05;6.63;;;20.70;99.90;21.00;99014.00;;;;4996245;28;87478;-60
2022/08/18 00:08:43;;;;;;;13.00;6.40;;;;;20.90;99008.00;;;;4995076;28;87218;-60
2022/08/18 00:11:10;;;;;;;17.65;6.43;;;;;20.80;99000.00;;;;4984880;28;88491;-60
2022/08/18 00:13:36;;;;;;;12.45;6.22;;;;;20.70;99000.00;;;;4985861;28;88450;-60
2022/08/18 00:16:03;;;;;;;14.15;7.13;;;;;20.70;99007.00;;;;4995297;28;87035;-60
2022/08/18 00:18:29;;;;;;;14.25;6.28;;;;;20.60;99001.00;;;;4991481;28;86951;-60
2022/08/18 00:20:56;;;;;;;16.50;6.55;;;;;20.60;99010.00;;;;4991564;28;87718;-60
2022/08/18 00:23:22;;;;;;;14.02;6.53;;;;;20.60;99011.00;;;;4987703;28;88518;-60
2022/08/18 00:25:49;;;;;;;17.13;7.05;;;;;20.60;99005.00;;;;4991443;28;87150;-59
2022/08/18 00:28:15;;;;;;;16.63;7.10;;;;;20.50;99011.00;;;;4988534;28;86396;-60
2022/08/18 00:30:42;;;;;;;16.40;6.40;;;;;20.40;99001.00;;;;4999036;28;88794;-60
2022/08/18 00:33:08;;;;;;;14.02;6.75;;;;;20.30;99007.00;;;;4988851;28;87294;-60
2022/08/18 00:35:37;;;;;;;12.65;6.40;;;20.20;99.90;20.40;99007.00;;;;4987550;28;87883;-59
2022/08/18 00:38:06;;;;;;;17.75;6.82;;;20.20;99.90;20.40;99006.00;;;;4998325;28;87056;-59
2022/08/18 00:40:43;;;;;;;14.30;6.85;;;20.20;99.90;20.40;99020.00;;;;4990832;28;87797;-59
2022/08/18 00:43:25;;;;;;;18.00;6.72;;;20.10;99.90;20.40;99011.00;;;;4991300;28;87426;-59
2022/08/18 00:45:51;;;;;;;;;;;20.10;99.90;20.30;99013.00;;;;4999392;28;86899;-59
2022/08/18 00:48:17;;;;;;;16.00;6.88;;;;;20.30;99014.00;;;;5003880;28;87005;-59
2022/08/18 00:51:09;;;;;;;16.08;6.82;;;20.10;99.90;20.30;99012.00;;;;4980132;28;88802;-59
2022/08/18 00:53:52;;;;;;;16.20;6.70;;;20.10;99.90;20.20;99014.00;;;;4997248;28;87441;-59
2022/08/18 00:56:25;;;;;;;14.82;6.95;;;19.90;99.90;20.20;99012.00;;;;4986973;28;87525;-59
2022/08/18 00:59:09;;;;;;;10.98;6.15;;;19.90;99.90;20.00;99011.00;;;;4995741;28;86997;-59
2022/08/18 01:01:36;;;;;;;18.15;6.90;;;;;19.90;99010.00;;;;4992990;28;88808;-59
2022/08/18 01:04:10;;;;;;;22.48;6.40;;;19.60;99.90;19.80;98994.00;;;;4992301;28;89244;-59
2022/08/18 01:06:56;;;;;;;20.70;6.88;;;19.60;99.90;19.70;99015.00;;;;4988296;28;87062;-59
2022/08/18 01:09:23;;;;;;;17.83;6.75;;;;;19.70;99012.00;;;;4989955;28;87772;-59
2022/08/18 01:11:50;;;;;;;16.33;6.05;;;;;19.80;99010.00;;;;5002634;28;87644;-59
2022/08/18 01:14:17;;;;;;;12.85;6.75;;;19.80;99.90;19.90;98999.00;;;;4995101;28;87247;-59
2022/08/18 01:22:35;;;;;;;10.18;5.57;;;19.70;99.90;19.90;99002.00;;;;4994772;28;87759;-59
2022/08/18 01:27:47;;;;;;;15.38;6.07;;;;;19.80;99005.00;;;;4985437;28;88296;-59
2022/08/18 01:30:16;;;;;;;10.68;6.53;;;19.60;99.90;19.80;99004.00;;;;4998476;28;86997;-59
2022/08/18 01:32:44;;;;;;;13.20;6.50;;;;;19.80;99007.00;;;;4994372;28;87994;-59
2022/08/18 01:35:14;;;;;;;12.98;7.03;;;19.60;99.90;19.70;99011.00;;;;4990573;28;87945;-59
2022/08/18 01:37:41;;;;;;;18.23;6.47;;;;;19.60;99001.00;;;;4994168;28;86876;-59
2022/08/18 01:40:11;;;;;;;19.10;7.05;;;19.40;99.90;19.50;99011.00;;;;4987569;28;87283;-59
2022/08/18 01:42:38;;;;;;;17.77;6.88;;;19.30;99.90;19.40;98999.00;;;;4994684;28;87786;-59
2022/08/18 01:45:06;;;;;;;16.85;6.82;;;19.30;99.90;19.40;98999.00;;;;4984768;28;87243;-59
2022/08/18 01:47:34;;;;;;;11.15;6.13;;;19.20;99.90;19.30;98998.00;;;;4981791;28;87129;-58
2022/08/18 01:50:03;;;;;;;10.23;6.43;;;19.20;99.90;19.30;98995.00;;;;4983642;28;86990;-59
2022/08/18 01:52:30;;;;;;;14.80;6.97;;;;;19.20;99004.00;;;;4992211;28;88972;-58
2022/08/18 01:54:57;;;;;;;10.95;6.40;;;;;19.20;99000.00;;;;4983284;28;88592;-58
2022/08/18 01:57:24;;;;;;;13.30;7.03;;;19.00;99.90;19.10;99002.00;;;;4988890;28;87385;-59
2022/08/18 01:59:51;;;;;;;18.42;7.22;;;;;19.10;99003.00;;;;4997469;28;87046;-59
2022/08/18 02:02:27;;;;;;;14.20;6.72;;;18.90;99.90;19.10;99012.00;;;;4989389;28;87575;-58
2022/08/18 02:05:01;;;;;;;12.35;6.75;;;18.90;99.90;19.00;99024.00;;;;4989181;28;88450;-59
2022/08/18 02:07:29;;;;;;;15.88;7.07;;;;;19.00;99022.00;;;;4994582;28;87435;-58
2022/08/18 02:09:56;;;;;;;17.15;7.65;;;;;19.00;99018.00;;;;4993233;28;86199;-58
2022/08/18 02:12:22;;;;;;;16.83;7.85;;;;;19.00;99034.00;;;;4982054;28;87536;-59
2022/08/18 02:14:50;;;;;;;12.30;7.28;;;;;18.90;99033.00;;;;4989394;28;87378;-58
2022/08/18 02:17:17;;;;;;;13.35;7.35;;;;;19.00;99036.00;;;;4994221;28;87981;-59
2022/08/18 02:19:46;;;;;;;11.68;7.63;;;18.90;99.90;19.00;99040.00;;;;4985409;28;87043;-58
2022/08/18 02:22:18;;;;;;;11.40;7.65;;;18.90;99.90;19.00;99041.00;;;;4986596;28;87546;-60
2022/08/18 02:24:45;;;;;;;15.93;7.70;;;18.90;99.90;19.00;99041.00;;;;4993123;28;88501;-61
2022/08/18 02:27:14;;;;;;;12.65;7.35;;;18.80;99.90;19.00;99043.00;;;;4983891;28;86905;-60
2022/08/18 02:29:40;;;;;;;13.57;7.50;;;;;19.00;99042.00;;;;4992885;28;87292;-61
2022/08/18 02:32:07;;;;;;;14.45;7.40;;;;;18.90;99039.00;;;;4995966;28;87752;-60
2022/08/18 02:34:35;;;;;;;12.95;7.43;;;;;19.00;99041.00;;;;4985846;28;87351;-59
2022/08/18 02:37:02;;;;;;;17.92;8.05;;;18.90;99.90;19.00;99039.00;;;;4991780;28;87284;-59
2022/08/18 02:39:29;;;;;;;18.98;8.27;;;;;19.00;99042.00;;;;4986394;28;86857;-59
2022/08/18 02:41:55;;;;;;;12.30;8.00;;;;;19.00;99038.00;;;;4995620;28;88466;-59
2022/08/18 02:44:22;;;;;;;18.88;8.13;;;;;19.00;99048.00;;;;4986880;28;89446;-59
2022/08/18 02:46:53;;;;;;;15.00;8.40;;;19.00;99.90;19.10;99050.00;;;;4982603;28;87046;-59
2022/08/18 02:49:19;;;;;;;14.80;8.32;;;;;19.10;99049.00;;;;4981491;28;86883;-59
2022/08/18 02:51:46;;;;;;;20.42;10.15;;;;;19.10;99048.00;;;;4990736;28;88012;-59
2022/08/18 02:54:12;;;;;;;17.88;8.45;;;;;19.10;99053.00;;;;4984447;28;87355;-59
2022/08/18 02:56:40;;;;;;;17.35;8.90;;;;;19.20;99040.00;;;;4987883;28;87561;-59
2022/08/18 02:59:13;;;;;;;17.00;9.73;;;19.00;99.90;19.20;99036.00;;;;4997578;28;86342;-60
2022/08/18 03:01:43;;;;;;;18.35;8.90;;;19.10;99.90;19.20;99044.00;;;;4995929;28;88478;-60
2022/08/18 03:04:14;;;;;;;17.15;8.95;;;19.10;99.90;19.30;99039.00;;;;4994425;28;88369;-59
2022/08/18 03:06:41;;;;;;;17.27;10.82;;;;;19.40;99037.00;;;;4986201;28;87847;-59
2022/08/18 03:09:09;;;;;;;18.13;9.25;;;19.40;99.90;19.50;99048.00;;;;5000683;28;87064;-59
2022/08/18 03:11:36;;;;;;;18.05;9.45;;;;;19.70;99040.00;;;;4984771;28;87509;-59
2022/08/18 03:14:04;;;;;;;17.20;9.25;;;19.60;99.90;19.80;99048.00;;;;4988248;28;88739;-59
2022/08/18 03:16:31;;;;;;;20.58;10.35;;;;;19.80;99057.00;;;;4997447;28;86997;-59
2022/08/18 03:18:59;;;;;;;20.80;10.30;;;19.70;99.90;19.90;99029.00;;;;4992164;28;87205;-59
2022/08/18 03:21:29;;;;;;;18.65;9.77;;;19.70;99.90;20.00;99033.00;;;;4996046;28;87536;-59
2022/08/18 03:23:57;;;;;;;21.40;12.02;;;19.80;99.90;20.00;99036.00;;;;4991109;28;87397;-59
2022/08/18 03:26:24;;;;;;;25.65;13.00;;;;;20.20;99039.00;;;;4994810;28;86850;-59
2022/08/18 03:28:52;;;;;;;25.00;14.98;;;20.10;99.90;20.40;99037.00;;;;5002583;28;87994;-59
2022/08/18 03:31:22;;;;;;;34.78;18.83;;;20.30;99.90;20.60;99033.00;;;;4999759;28;88340;-59
2022/08/18 03:33:48;;;;;;;30.55;18.70;;;;;20.70;99034.00;;;;4995523;28;88389;-60
2022/08/18 03:36:25;;;;;;;29.75;19.27;;;20.60;99.90;20.80;99026.00;;;;4995685;28;87484;-61
2022/08/18 03:38:52;;;;;;;31.58;19.08;;;20.50;99.90;20.70;99034.00;;;;4988346;28;87408;-60
2022/08/18 03:41:22;;;;;;;34.58;22.83;;;20.30;99.90;20.50;99019.00;;;;4993706;28;88497;-61
2022/08/18 03:43:49;;;;;;;41.25;28.35;;;20.10;99.90;20.30;99031.00;;;;4994703;28;87430;-61
2022/08/18 03:46:19;;;;;;;42.20;28.77;;;20.00;99.90;20.20;99034.00;;;;4988865;28;87017;-61
2022/08/18 03:48:48;;;;;;;38.88;24.77;;;19.90;99.90;20.20;99037.00;;;;4987627;28;86314;-59
2022/08/18 03:51:20;;;;;;;47.38;32.50;;;19.90;99.90;20.00;99027.00;;;;4990578;28;87598;-59
2022/08/18 03:53:48;;;;;;;46.72;30.13;;;19.80;99.90;20.00;99036.00;;;;4991860;28;88470;-60
2022/08/18 03:56:19;;;;;;;62.95;43.28;;;19.90;99.90;20.10;99054.00;;;;4989253;28;87963;-60
2022/08/18 03:58:48;;;;;;;;;;;19.90;99.90;20.30;99042.00;;;;4992500;28;86813;-60
2022/08/18 04:01:17;;;;;;;90.40;59.17;;;20.20;99.90;20.40;99035.00;;;;4986567;28;87337;-60
2022/08/18 04:03:46;;;;;;;51.28;37.28;;;20.40;99.90;20.60;99036.00;;;;4990238;28;87423;-60
2022/08/18 04:06:18;;;;;;;104.50;75.53;;;20.60;99.90;20.90;99044.00;;;;4994180;28;87420;-60
2022/08/18 04:08:45;;;;;;;89.78;66.15;;;20.90;99.90;21.20;99036.00;;;;4993829;28;86903;-59
2022/08/18 04:11:13;;;;;;;74.00;54.15;;;21.20;99.90;21.50;99031.00;;;;4990723;28;88096;-60
2022/08/18 04:13:40;;;;;;;105.63;81.15;;;;;21.80;99037.00;;;;4993935;28;87540;-59
2022/08/18 04:16:07;;;;;;;77.10;52.25;;;;;22.00;99039.00;;;;4988455;28;87456;-60
2022/08/18 04:18:33;;;;;;;79.00;57.90;;;;;22.30;99037.00;;;;4988406;28;86977;-61
2022/08/18 04:21:12;;;;;;;93.07;72.80;;;22.10;99.90;22.40;99036.00;;;;4990308;28;88961;-61
2022/08/18 04:23:40;;;;;;;88.85;60.60;;;22.30;99.90;22.70;99037.00;;;;4988352;28;89523;-60
2022/08/18 04:26:09;;;;;;;92.20;64.63;;;22.40;99.90;22.70;99034.00;;;;4988914;28;87023;-61
2022/08/18 04:28:36;;;;;;;94.28;66.18;;;;;23.00;99032.00;;;;4990915;28;87147;-61
2022/08/18 04:31:12;;;;;;;81.63;65.07;;;22.80;99.90;23.20;99050.00;;;;4989407;28;88837;-61
2022/08/18 04:33:40;;;;;;;87.57;68.22;;;22.90;99.90;23.30;99036.00;;;;4992411;28;87502;-61
2022/08/18 04:36:14;;;;;;;85.25;67.95;;;22.90;99.90;23.30;99048.00;;;;4991351;28;87416;-60
2022/08/18 04:38:41;;;;;;;87.50;65.88;;;23.00;99.90;23.30;99056.00;;;;4995214;28;86403;-60
2022/08/18 04:41:08;;;;;;;94.20;70.40;;;;;23.40;99055.00;;;;4989290;28;88764;-60
2022/08/18 04:43:35;;;;;;;85.75;68.93;;;;;23.60;99060.00;;;;4992616;28;87611;-60
2022/08/18 04:46:02;;;;;;;90.95;68.80;;;;;23.70;99053.00;;;;4989874;28;88240;-59
2022/08/18 04:48:36;;;;;;;87.72;69.50;;;23.30;99.90;23.80;99058.00;;;;4990964;28;86917;-59
2022/08/18 04:51:16;;;;;;;94.82;68.80;;;23.40;99.90;23.90;99056.00;;;;4990279;28;87533;-59
2022/08/18 04:53:43;;;;;;;86.10;68.05;;;23.50;99.90;23.90;99060.00;;;;4986659;28;88453;-59
2022/08/18 04:56:24;;;;;;;94.05;70.38;;;23.60;99.90;24.00;99054.00;;;;4994547;28;87342;-59
2022/08/18 04:58:55;;;;;;;100.00;72.03;;;23.70;99.90;24.20;99057.00;;;;4993322;28;87033;-59
2022/08/18 05:01:25;;;;;;;90.10;69.97;;;23.80;99.90;24.30;99067.00;;;;4996652;28;87527;-59
2022/08/18 05:03:53;;;;;;;108.40;86.57;;;23.80;99.90;24.30;99053.00;;;;4988250;28;87177;-59
2022/08/18 05:06:24;;;;;;;114.70;90.88;;;23.90;99.90;24.30;99063.00;;;;4994980;28;87000;-59
2022/08/18 05:08:56;;;;;;;;;;;23.90;99.90;24.30;99061.00;;;;4993251;28;87069;-59
2022/08/18 05:11:24;;;;;;;107.28;87.95;;;23.80;99.90;24.30;99057.00;;;;4985866;28;88421;-59
2022/08/18 05:13:51;;;;;;;106.80;87.28;;;;;24.30;99063.00;;;;4982104;28;88357;-61
2022/08/18 05:16:18;;;;;;;115.05;89.60;;;;;24.40;99064.00;;;;4996881;28;86963;-60
2022/08/18 05:18:44;;;;;;;118.88;94.95;;;;;24.50;99063.00;;;;4989477;28;87043;-61
2022/08/18 05:21:12;;;;;;;121.25;93.78;;;;;24.70;99062.00;;;;4992506;28;88763;-61
2022/08/18 05:23:41;;;;;;;119.47;93.82;;;24.40;99.90;24.90;99063.00;;;;4995895;28;87345;-61
2022/08/18 05:26:08;;;;;;;122.65;97.38;;;;;25.00;99064.00;;;;4990762;28;87042;-59
2022/08/18 05:28:36;;;;;;;117.20;93.75;;;;;25.00;99071.00;;;;4982963;28;86257;-59
2022/08/18 05:31:16;;;;;;;120.53;95.25;;;24.60;99.90;25.20;99077.00;;;;4996356;28;88653;-60
2022/08/18 05:33:44;;;;;;;113.25;90.53;;;24.70;99.90;25.20;99066.00;;;;4993158;28;88536;-60
2022/08/18 05:36:47;;;;;;;113.72;92.10;;;24.60;99.90;25.10;99063.00;;;;4985228;28;87940;-60
2022/08/18 05:39:16;;;;;;;112.80;92.55;;;;;25.10;99067.00;;;;4976058;28;87476;-60
2022/08/18 05:41:51;;;;;;;114.45;90.47;;;24.80;99.90;25.20;99065.00;;;;4988892;28;88568;-60
2022/08/18 05:44:24;;;;;;;108.22;91.20;;;24.70;99.90;25.10;99070.00;;;;4995472;28;88457;-60
2022/08/18 05:47:05;;;;;;;112.93;89.10;;;24.70;99.90;25.20;99071.00;;;;4999093;28;86964;-60
2022/08/18 05:49:32;;;;;;;106.15;86.72;;;;;25.20;99070.00;;;;5000758;28;86984;-60
2022/08/18 05:52:05;;;;;;;110.55;87.25;;;24.80;99.90;25.30;99071.00;;;;4990520;28;88720;-60
2022/08/18 05:57:50;;;;;;;109.00;84.28;;;25.00;99.90;25.50;99076.00;;;;4991224;28;87024;-59
2022/08/18 06:00:22;;;;;;;105.82;83.45;;;25.00;99.90;25.50;99078.00;;;;4983060;28;88096;-59
2022/08/18 06:03:13;;;;;;;104.78;84.45;;;24.80;99.90;25.20;99083.00;;;;4989758;28;88772;-59
2022/08/18 06:06:10;;;;;;;109.22;82.07;;;24.70;99.90;25.00;99085.00;;;;4989172;28;89567;-59
2022/08/18 06:09:13;;;;;;;92.18;75.28;;;24.50;99.90;24.80;99074.00;;;;4992391;28;87233;-59
2022/08/18 06:11:39;;;;;;;90.50;70.25;;;;;24.70;99079.00;;;;4996974;28;87070;-59
2022/08/18 06:14:06;;;;;;;88.65;69.47;;;;;24.70;99081.00;;;;4997101;28;87610;-60
2022/08/18 06:17:04;;;;;;;93.32;70.25;;;24.30;99.90;24.60;99089.00;;;;4983622;28;87293;-59
2022/08/18 06:20:13;;;;;;;86.45;64.05;;;24.20;99.90;24.50;99088.00;;;;4991706;28;87775;-60
2022/08/18 06:22:48;;;;;;;82.97;64.93;;;;;24.50;99090.00;;;;4995660;28;86280;-60
2022/08/18 06:25:34;;;;;;;79.40;60.90;;;24.20;99.90;24.50;99085.00;;;;4996552;28;87980;-60
2022/08/18 06:28:19;;;;;;;78.30;59.63;;;24.20;99.90;24.50;99082.00;;;;4996133;28;87060;-60
2022/08/18 06:31:15;;;;;;;83.70;60.63;;;24.30;99.90;24.60;99095.00;;;;4993616;28;87863;-59
2022/08/18 06:34:23;;;;;;;71.38;55.22;;;24.40;99.90;24.60;99094.00;;;;4990274;28;87388;-59
2022/08/18 06:37:25;;;;;;;74.82;54.17;;;24.40;99.90;24.70;99097.00;;;;4990389;28;87525;-60
2022/08/18 06:39:52;;;;;;;65.03;51.80;;;;;24.80;99096.00;;;;4971731;28;87388;-61
2022/08/18 06:42:29;;;;;;;66.85;47.28;;;24.40;99.90;24.80;99106.00;;;;4999085;28;86980;-60
2022/08/18 06:45:11;;;;;;;64.20;45.40;;;24.50;99.90;24.80;99107.00;;;;4985432;28;87168;-60
2022/08/18 06:47:39;;;;;;;61.78;41.88;;;;;24.70;99102.00;;;;4967169;28;87611;-61
2022/08/18 06:50:31;;;;;;;51.97;37.50;;;24.30;99.90;24.60;99107.00;;;;4984264;28;87201;-61
2022/08/18 06:53:02;;;;;;;47.85;34.17;;;24.40;99.90;24.60;99100.00;;;;4988948;28;87105;-59
2022/08/18 06:55:49;;;;;;;52.75;35.53;;;24.30;99.90;24.60;99103.00;;;;5002600;28;86918;-60
2022/08/18 06:58:16;;;;;;;49.38;30.98;;;;;24.70;99098.00;;;;4994382;28;88590;-61
2022/08/18 07:00:55;;;;;;;53.38;31.80;;;24.50;99.90;24.80;99084.00;;;;4984631;28;90263;-61
2022/08/18 07:03:45;;;;;;;43.65;30.52;;;24.60;99.90;24.90;99104.00;;;;4993637;28;87027;-60
2022/08/18 07:06:21;;;;;;;38.20;26.88;;;;;25.00;99098.00;;;;4996270;28;87333;-61
2022/08/18 07:08:52;;;;;;;34.88;26.50;;;24.90;99.90;25.20;99104.00;;;;4994021;28;88717;-59
2022/08/18 07:11:27;;;;;;;33.38;24.10;;;;;25.30;99101.00;;;;4989261;28;87314;-60
2022/08/18 07:14:12;;;;;;;35.97;21.63;;;25.20;99.90;25.50;99107.00;;;;5000447;28;87549;-59
2022/08/18 07:16:39;;;;;;;35.15;22.08;;;;;25.50;99102.00;;;;4987424;28;87205;-61
2022/08/18 07:19:12;;;;;;;28.60;20.40;;;25.20;99.90;25.40;99111.00;;;;4989276;28;88700;-59
2022/08/18 07:21:42;;;;;;;30.02;18.88;;;25.10;99.90;25.40;99111.00;;;;4996157;28;86981;-59
2022/08/18 07:24:41;;;;;;;31.87;18.50;;;;;25.50;99103.00;;;;4989660;28;87996;-59
2022/08/18 07:27:18;;;;;;;26.33;17.15;;;25.30;99.90;25.60;99104.00;;;;5008291;28;87083;-60
2022/08/18 07:30:07;;;;;;;20.00;13.90;;;25.40;99.90;25.70;99105.00;;;;4991249;28;87824;-60
2022/08/18 07:33:13;;;;;;;18.23;10.95;;;25.50;99.90;25.70;99102.00;;;;5001478;28;87353;-61
2022/08/18 07:35:49;;;;;;;19.52;11.40;;;25.40;99.80;25.70;99104.00;;;;4990314;28;87080;-60
2022/08/18 07:38:30;;;;;;;15.88;11.27;;;25.50;99.90;25.70;99108.00;;;;4994551;28;87173;-60
2022/08/18 07:41:01;;;;;;;22.15;11.55;;;;;25.70;99105.00;;;;4991248;28;88604;-60
2022/08/18 07:43:37;;;;;;;;;;;25.40;99.90;25.80;99105.00;;;;4993913;28;87677;-59
2022/08/18 07:46:46;;;;;;;18.48;10.55;;;25.60;99.90;25.90;99097.00;;;;5001727;28;87309;-61
2022/08/18 07:49:36;;;;;;;18.50;9.75;;;25.60;99.00;25.90;99110.00;;;;4981616;28;87191;-61
2022/08/18 07:52:25;;;;;;;16.70;10.30;;;25.70;99.90;25.90;99106.00;;;;4991517;28;88722;-61
2022/08/18 07:55:47;;;;;;;19.23;9.35;;;25.80;99.40;25.90;99098.00;;;;4982015;28;88224;-61
2022/08/18 07:58:39;;;;;;;23.27;10.05;;;25.60;99.10;25.90;99104.00;;;;4983204;28;87044;-61
2022/08/18 08:01:48;;;;;;;22.48;9.35;;;25.40;98.90;25.70;99101.00;;;;4997304;28;87021;-60
2022/08/18 08:04:40;;;;;;;13.50;9.05;;;25.40;98.90;25.60;99104.00;;;;4990829;28;88905;-61
2022/08/18 08:08:05;;;;;;;14.93;8.00;;;25.50;99.10;25.80;99110.00;;;;4994981;28;86972;-60
2022/08/18 08:11:05;;;;;;;11.13;6.97;;;25.50;98.90;25.80;99111.00;;;;4990484;28;86838;-58
2022/08/18 08:13:31;;;;;;;17.25;7.15;;;;;26.00;99108.00;;;;4982225;28;86345;-59
2022/08/18 08:16:27;;;;;;;18.75;8.43;;;25.80;98.70;26.10;99114.00;;;;4994669;28;89265;-59
2022/08/18 08:19:39;;;;;;;11.23;7.03;;;26.10;98.20;26.30;99108.00;;;;4987255;28;88213;-59
2022/08/18 08:22:32;;;;;;;15.88;7.10;;;26.10;98.00;26.30;99115.00;;;;4991676;28;87914;-59
2022/08/18 08:25:26;;;;;;;19.83;6.07;;;26.10;97.80;26.40;99107.00;;;;4992168;28;87174;-59
2022/08/18 08:28:32;;;;;;;17.90;5.68;;;26.20;97.70;26.40;99100.00;;;;4987197;28;87093;-60
2022/08/18 08:31:08;;;;;;;11.75;5.30;;;;;26.50;99106.00;;;;4998897;28;87551;-60
2022/08/18 08:33:50;;;;;;;13.13;5.60;;;26.30;97.30;26.60;99102.00;;;;4995134;28;86933;-60
2022/08/18 08:36:19;;;;;;;12.73;4.47;;;;;26.60;99108.00;;;;4987101;28;87023;-60
2022/08/18 08:38:58;;;;;;;9.65;4.63;;;26.30;96.40;26.50;99110.00;;;;4992989;28;88793;-60
2022/08/18 08:41:34;;;;;;;11.75;4.50;;;26.30;96.80;26.60;99109.00;;;;4992878;28;88266;-60
2022/08/18 08:44:23;;;;;;;13.45;5.05;;;26.30;96.40;26.50;99107.00;;;;4986380;28;87113;-60
2022/08/18 08:47:00;;;;;;;13.25;3.88;;;26.30;95.40;26.60;99099.00;;;;4967482;28;87820;-60
2022/08/18 08:49:43;;;;;;;12.20;4.20;;;26.40;96.60;26.70;99098.00;;;;4982435;28;88516;-59
2022/08/18 08:52:20;;;;;;;12.27;4.13;;;26.60;96.20;26.80;99110.00;;;;4984971;28;88093;-59
2022/08/18 08:54:53;;;;;;;13.57;4.03;;;;;27.00;99106.00;;;;4984241;28;87234;-60
2022/08/18 08:57:26;;;;;;;9.65;4.65;;;26.80;95.80;27.00;99086.00;;;;4988424;28;87055;-59
2022/08/18 08:59:56;;;;;;;7.75;3.05;;;26.70;94.50;27.00;99088.00;;;;4994211;28;88611;-60
2022/08/18 09:02:57;;;;;;;10.35;3.22;;;26.80;94.00;27.20;99095.00;;;;4992547;28;87028;-59
2022/08/18 09:05:45;;;;;;;8.07;4.17;;;26.80;93.80;27.20;99094.00;;;;4989828;28;87063;-60
2022/08/18 09:08:44;;;;;;;12.30;3.17;;;26.80;93.90;27.20;99092.00;;;;4993378;28;86380;-59
2022/08/18 09:11:53;;;;;;;11.10;2.97;;;27.00;93.60;27.30;99093.00;;;;4988901;28;90191;-60
2022/08/18 09:15:15;;;;;;;9.10;2.88;;;27.10;93.30;27.40;99092.00;;;;4977368;28;89752;-60
2022/08/18 09:17:41;;;;;;;6.88;2.75;;;;;27.50;99108.00;;;;4988927;28;87941;-60
2022/08/18 09:20:54;;;;;;;12.73;3.28;;;27.20;93.10;27.50;99108.00;;;;4999630;28;86826;-59
2022/08/18 09:23:25;;;;;;;4.88;2.55;;;27.20;92.40;27.50;99108.00;;;;4985144;28;87582;-61
2022/08/18 09:25:57;;;;;;;7.25;3.08;;;27.10;91.80;27.50;99096.00;;;;4992022;28;88510;-60
2022/08/18 09:28:29;;;;;;;11.48;2.95;;;27.10;91.80;27.40;99104.00;;;;4981127;28;87494;-61
2022/08/18 09:31:04;;;;;;;8.90;2.67;;;27.20;92.10;27.50;99095.00;;;;4989320;28;87063;-61
2022/08/18 09:33:40;;;;;;;17.05;2.92;;;27.20;91.40;27.50;99105.00;;;;4998076;28;87590;-59
2022/08/18 09:36:30;;;;;;;9.15;3.28;;;27.20;92.10;27.50;99090.00;;;;4988905;28;88282;-60
2022/08/18 09:42:57;;;;;;;10.93;3.05;;;27.30;92.20;27.60;99087.00;;;;4954938;28;87599;-60
2022/08/18 09:45:32;;;;;;;13.55;2.67;;;27.40;92.20;27.80;99092.00;;;;4979097;28;88976;-59
2022/08/18 09:48:23;;;;;;;6.90;2.40;;;27.40;91.00;27.80;99093.00;;;;4981118;28;88188;-59
2022/08/18 09:51:31;;;;;;;6.07;2.83;;;27.50;91.00;27.80;99090.00;;;;4983107;28;87101;-59
2022/08/18 09:54:16;;;;;;;7.80;2.83;;;27.50;90.70;27.80;99063.00;;;;4993765;28;87281;-59
2022/08/18 09:56:48;;;;;;;10.98;2.80;;;27.50;90.70;27.90;99113.00;;;;4995801;28;87527;-62
2022/08/18 09:59:33;;;;;;;3.47;2.30;;;27.40;90.70;27.70;99088.00;;;;4988237;28;87056;-59
2022/08/18 10:02:13;;;;;;;5.28;2.28;;;27.40;91.30;27.80;99085.00;;;;4986712;28;87251;-59
2022/08/18 10:04:49;;;;;;;5.55;3.05;;;27.60;90.20;27.90;99079.00;;;;4993608;28;86220;-60
2022/08/18 10:07:28;;;;;;;9.63;2.72;;;27.50;90.10;27.90;99079.00;;;;4993044;28;88711;-59
2022/08/18 10:10:22;;;;;;;10.77;2.75;;;27.60;89.50;27.90;99081.00;;;;4991602;28;88366;-59
2022/08/18 10:13:46;;;;;;;6.75;2.88;;;27.70;89.40;28.10;99094.00;;;;4980842;28;87885;-59
2022/08/18 10:16:46;;;;;;;5.57;2.75;;;27.70;88.40;28.10;99082.00;;;;4989291;28;87584;-59
2022/08/18 10:19:40;;;;;;;12.65;2.45;;;27.80;88.60;28.20;99089.00;;;;4988117;28;88085;-59
2022/08/18 10:22:09;;;;;;;11.30;3.17;;;27.70;88.20;28.10;99065.00;;;;4982701;28;87347;-59
2022/08/18 10:24:56;;;;;;;11.40;2.50;;;27.70;87.70;28.00;99076.00;;;;4989089;28;86969;-61
2022/08/18 10:27:43;;;;;;;13.27;3.13;;;27.60;86.50;28.00;99075.00;;;;4993028;28;86985;-58
2022/08/18 10:30:30;;;;;;;6.30;2.50;;;27.60;86.40;27.90;99078.00;;;;4998941;28;87543;-59
2022/08/18 10:32:56;;;;;;;8.55;2.15;;;;;28.00;99076.00;;;;4992912;28;87357;-60
2022/08/18 10:35:37;;;;;;;8.25;2.45;;;27.60;84.40;28.00;99074.00;;;;4987372;28;86902;-60
2022/08/18 10:38:13;;;;;;;5.57;2.45;;;27.70;84.60;28.10;99071.00;;;;4993608;28;87595;-62
2022/08/18 10:40:42;;;;;;;5.60;2.50;;;27.80;84.30;28.10;99072.00;;;;4994045;28;87975;-63
2022/08/18 10:43:16;;;;;;;8.90;2.50;;;27.80;84.10;28.10;99082.00;;;;4991823;28;88447;-61
2022/08/18 10:45:50;;;;;;;7.82;2.53;;;27.70;83.20;28.10;99075.00;;;;4994518;28;87019;-62
2022/08/18 10:48:29;;;;;;;5.85;2.42;;;27.70;81.80;28.10;99082.00;;;;4980364;28;86992;-62
2022/08/18 10:51:01;;;;;;;9.38;2.55;;;;;28.10;99078.00;;;;4982749;28;87766;-62
2022/08/18 10:53:57;;;;;;;10.98;2.88;;;27.80;83.00;28.10;99060.00;;;;4993536;28;87235;-62
2022/08/18 10:56:51;;;;;;;5.95;2.03;;;27.80;81.70;28.20;99060.00;;;;4981159;28;87027;-62
2022/08/18 10:59:52;;;;;;;4.95;1.80;;;27.80;81.00;28.20;99057.00;;;;4987850;28;87358;-62
2022/08/18 11:02:41;;;;;;;7.60;2.28;;;27.80;81.70;28.20;99062.00;;;;4991705;28;88683;-62
2022/08/18 11:05:11;;;;;;;4.60;2.13;;;27.80;80.00;28.20;99065.00;;;;4991214;28;88782;-61
2022/08/18 11:07:42;;;;;;;6.07;2.10;;;27.90;80.30;28.20;99061.00;;;;4993360;28;87988;-62
2022/08/18 11:10:34;;;;;;;5.88;2.08;;;28.00;80.20;28.30;99065.00;;;;4990736;28;87727;-62
2022/08/18 11:13:20;;;;;;;7.55;2.33;;;27.90;78.10;28.30;99054.00;;;;4978765;28;88042;-62
2022/08/18 11:16:12;;;;;;;7.38;2.65;;;27.90;79.50;28.30;99091.00;;;;4987435;28;88489;-59
2022/08/18 11:18:44;;;;;;;9.10;2.10;;;27.80;79.00;28.20;99088.00;;;;4996172;28;87023;-59
2022/08/18 11:21:33;;;;;;;4.35;2.03;;;27.90;79.00;28.30;99061.00;;;;4957895;28;87861;-59
2022/08/18 11:24:17;;;;;;;5.80;1.85;;;27.90;77.90;28.20;99065.00;;;;4986552;28;87819;-60
2022/08/18 11:27:02;;;;;;;9.95;2.22;;;27.90;77.00;28.30;99053.00;;;;4992987;28;87321;-60
2022/08/18 11:29:32;;;;;;;8.63;2.15;;;27.90;77.70;28.30;99071.00;;;;5000171;28;86971;-60
2022/08/18 11:32:34;;;;;;;5.18;2.08;;;28.00;76.70;28.30;99067.00;;;;5001887;28;87034;-58
2022/08/18 11:35:09;;;;;;;3.25;2.08;;;27.90;74.80;28.30;99076.00;;;;4992858;28;88515;-59
2022/08/18 11:37:49;;;;;;;3.67;1.80;;;27.90;74.80;28.30;99058.00;;;;4987265;28;88224;-59
2022/08/18 11:40:40;;;;;;;16.67;2.15;;;27.90;73.80;28.30;99094.00;;;;4997922;28;87006;-59
2022/08/18 11:43:13;;;;;;;;;;;27.90;74.50;28.20;99076.00;;;;4991861;28;87194;-59
2022/08/18 11:45:45;;;;;;;8.45;2.45;;;27.80;74.10;28.20;99072.00;;;;4989233;28;88126;-58
2022/08/18 11:48:27;;;;;;;8.00;2.25;;;27.90;74.80;28.30;99067.00;;;;4983582;28;86981;-58
2022/08/18 11:50:55;;;;;;;14.68;2.00;;;28.00;76.10;28.40;99075.00;;;;4985199;28;87313;-58
2022/08/18 11:53:32;;;;;;;7.72;2.20;;;28.10;75.00;28.40;99065.00;;;;4992792;28;86368;-58
2022/08/18 11:56:16;;;;;;;6.90;2.10;;;28.00;73.60;28.40;99057.00;;;;4983078;28;87677;-59
2022/08/18 11:58:59;;;;;;;7.05;2.25;;;28.10;71.70;28.40;99065.00;;;;4991064;28;88434;-59
2022/08/18 12:01:36;;;;;;;7.90;1.73;;;28.10;72.50;28.40;99064.00;;;;4997111;28;88301;-60
2022/08/18 12:04:19;;;;;;;7.40;2.15;;;28.00;70.70;28.40;99057.00;;;;4990298;28;87050;-58
2022/08/18 12:07:08;;;;;;;9.75;2.03;;;28.00;68.60;28.40;99052.00;;;;4994404;28;87700;-58